createdAt,value
2023-05-12T00:00:57.891Z,15.35
2023-05-12T00:03:44.257Z,15.33
2023-05-12T00:06:31.276Z,15.30
2023-05-12T00:09:17.320Z,15.33
2023-05-12T00:12:03.809Z,15.25
2023-05-12T00:14:50.098Z,15.25
2023-05-12T00:17:36.319Z,15.27
2023-05-12T00:20:22.666Z,15.26
2023-05-12T00:23:08.775Z,15.27
2023-05-12T00:25:54.880Z,15.24
2023-05-12T00:28:41.152Z,15.24
2023-05-12T00:31:27.042Z,15.22
2023-05-12T00:34:13.092Z,15.18
2023-05-12T00:36:58.985Z,15.19
2023-05-12T00:39:44.820Z,15.16
2023-05-12T00:42:30.794Z,15.18
2023-05-12T00:45:17.408Z,15.14
2023-05-12T00:48:04.937Z,15.18
2023-05-12T00:50:51.178Z,15.15
2023-05-12T00:53:48.236Z,15.12
2023-05-12T00:56:39.548Z,15.20
2023-05-12T00:59:27.235Z,15.18
2023-05-12T01:02:13.392Z,15.12
2023-05-12T01:04:59.748Z,15.20
2023-05-12T01:07:47.036Z,15.20
2023-05-12T01:10:33.512Z,15.17
2023-05-12T01:13:19.497Z,15.21
2023-05-12T01:16:10.114Z,15.18
2023-05-12T01:18:56.929Z,15.21
2023-05-12T01:21:43.010Z,15.23
2023-05-12T01:24:30.953Z,15.20
2023-05-12T01:27:17.973Z,15.20
2023-05-12T01:30:05.955Z,15.21
2023-05-12T01:32:54.882Z,15.19
2023-05-12T01:35:41.268Z,15.17
2023-05-12T01:38:27.612Z,15.18
2023-05-12T01:41:13.596Z,15.18
2023-05-12T01:43:59.650Z,15.14
2023-05-12T01:46:47.213Z,15.17
2023-05-12T01:49:33.430Z,15.17
2023-05-12T01:52:20.708Z,15.18
2023-05-12T01:55:07.312Z,15.16
2023-05-12T01:57:59.525Z,15.17
2023-05-12T02:00:45.308Z,15.17
2023-05-12T02:03:35.250Z,15.11
2023-05-12T02:06:22.342Z,15.13
2023-05-12T02:09:09.045Z,15.10
2023-05-12T02:11:54.966Z,15.08
2023-05-12T02:14:40.949Z,15.14
2023-05-12T02:17:28.866Z,15.11
2023-05-12T02:20:18.546Z,15.07
2023-05-12T02:23:04.562Z,15.06
2023-05-12T02:25:52.573Z,15.01
2023-05-12T02:28:39.720Z,14.98
2023-05-12T02:31:25.944Z,14.98
2023-05-12T02:34:12.038Z,14.96
2023-05-12T02:36:58.020Z,14.96
2023-05-12T02:39:44.036Z,14.90
2023-05-12T02:42:35.552Z,14.93
2023-05-12T02:45:21.749Z,14.88
2023-05-12T02:48:07.848Z,14.89
2023-05-12T02:50:53.716Z,14.91
2023-05-12T02:53:39.703Z,14.89
2023-05-12T02:56:26.134Z,14.93
2023-05-12T02:59:12.490Z,14.98
2023-05-12T03:01:58.766Z,14.96
2023-05-12T03:04:45.022Z,14.96
2023-05-12T03:07:31.278Z,14.94
2023-05-12T03:10:18.808Z,14.89
2023-05-12T03:13:05.917Z,14.91
2023-05-12T03:15:52.308Z,14.88
2023-05-12T03:18:39.430Z,14.78
2023-05-12T03:21:26.020Z,14.73
2023-05-12T03:24:11.920Z,14.86
2023-05-12T03:26:57.755Z,14.86
2023-05-12T03:29:49.633Z,14.86
2023-05-12T03:32:39.215Z,14.84
2023-05-12T03:35:56.796Z,14.89
2023-05-12T03:38:44.357Z,14.86
2023-05-12T03:41:35.063Z,14.85
2023-05-12T03:44:21.470Z,14.87
2023-05-12T03:47:07.903Z,14.75
2023-05-12T03:49:55.934Z,14.84
2023-05-12T03:52:42.091Z,14.86
2023-05-12T03:55:28.271Z,14.86
2023-05-12T03:58:37.300Z,14.84
2023-05-12T04:01:24.455Z,14.83
2023-05-12T04:04:19.428Z,14.88
2023-05-12T04:07:06.733Z,14.73
2023-05-12T04:09:52.427Z,14.84
2023-05-12T04:12:38.505Z,14.84
2023-05-12T04:15:25.250Z,14.84
2023-05-12T04:18:11.046Z,14.84
2023-05-12T04:20:59.094Z,14.81
2023-05-12T04:23:45.659Z,14.78
2023-05-12T04:26:31.617Z,14.81
2023-05-12T04:29:22.028Z,14.78
2023-05-12T04:32:11.855Z,14.72
2023-05-12T04:34:58.126Z,14.79
2023-05-12T04:37:45.199Z,14.82
2023-05-12T04:40:34.116Z,14.80
2023-05-12T04:46:13.974Z,14.81
2023-05-12T04:49:37.272Z,14.84
2023-05-12T04:52:25.417Z,14.71
2023-05-12T04:55:11.526Z,14.68
2023-05-12T04:58:01.960Z,14.81
2023-05-12T05:01:28.594Z,14.82
2023-05-12T05:04:15.093Z,14.68
2023-05-12T05:07:01.150Z,14.79
2023-05-12T05:14:13.757Z,14.77
2023-05-12T05:17:00.236Z,14.85
2023-05-12T05:19:57.113Z,14.76
2023-05-12T05:22:52.454Z,14.93
2023-05-12T05:25:39.658Z,14.94
2023-05-12T05:28:26.739Z,14.95
2023-05-12T05:31:17.310Z,14.98
2023-05-12T05:34:03.806Z,15.02
2023-05-12T05:36:50.317Z,15.01
2023-05-12T05:39:36.344Z,15.04
2023-05-12T05:42:22.311Z,15.05
2023-05-12T05:45:10.208Z,15.10
2023-05-12T05:47:57.477Z,15.13
2023-05-12T05:50:44.736Z,15.15
2023-05-12T05:53:30.845Z,15.13
2023-05-12T05:56:16.722Z,15.16
2023-05-12T05:59:04.723Z,15.16
2023-05-12T06:01:50.533Z,15.23
2023-05-12T06:04:36.338Z,15.28
2023-05-12T06:07:22.305Z,15.30
2023-05-12T06:10:08.974Z,15.31
2023-05-12T06:12:54.636Z,15.37
2023-05-12T06:15:40.533Z,15.37
2023-05-12T06:18:26.705Z,15.41
2023-05-12T06:21:12.659Z,15.42
2023-05-12T06:23:58.279Z,15.49
2023-05-12T06:26:44.067Z,15.52
2023-05-12T06:29:30.074Z,15.55
2023-05-12T06:32:16.197Z,15.53
2023-05-12T06:35:02.446Z,15.60
2023-05-12T06:37:51.069Z,15.56
2023-05-12T06:40:37.301Z,15.58
2023-05-12T06:43:23.450Z,15.59
2023-05-12T06:46:14.681Z,15.56
2023-05-12T06:49:01.986Z,15.60
2023-05-12T06:51:48.573Z,15.62
2023-05-12T06:54:34.905Z,15.62
2023-05-12T06:57:20.570Z,15.59
2023-05-12T07:00:07.758Z,15.66
2023-05-12T07:02:53.631Z,15.73
2023-05-12T07:05:39.711Z,15.77
2023-05-12T07:08:26.091Z,15.79
2023-05-12T07:11:12.276Z,15.86
2023-05-12T07:13:57.922Z,15.84
2023-05-12T07:16:43.874Z,15.86
2023-05-12T07:19:30.220Z,15.97
2023-05-12T07:22:16.256Z,16.05
2023-05-12T07:25:02.380Z,16.13
2023-05-12T07:27:49.583Z,16.21
2023-05-12T07:30:36.245Z,16.27
2023-05-12T07:33:22.039Z,16.36
2023-05-12T07:36:09.024Z,16.40
2023-05-12T07:38:54.718Z,16.45
2023-05-12T07:41:41.224Z,16.51
2023-05-12T07:44:28.363Z,16.56
2023-05-12T07:47:15.187Z,16.62
2023-05-12T07:50:01.401Z,16.66
2023-05-12T07:52:52.152Z,16.69
2023-05-12T07:55:39.204Z,16.73
2023-05-12T07:58:25.496Z,16.76
2023-05-12T08:01:11.593Z,16.82
2023-05-12T08:03:57.368Z,16.89
2023-05-12T08:06:43.199Z,16.92
2023-05-12T08:09:29.026Z,17.01
2023-05-12T08:12:15.178Z,17.07
2023-05-12T08:15:01.482Z,17.17
2023-05-12T08:17:47.600Z,17.13
2023-05-12T08:20:33.555Z,17.26
2023-05-12T08:23:19.728Z,17.28
2023-05-12T08:26:05.564Z,17.36
2023-05-12T08:28:51.622Z,17.41
2023-05-12T08:31:38.733Z,17.47
2023-05-12T08:34:25.524Z,17.48
2023-05-12T08:37:11.893Z,17.58
2023-05-12T08:39:58.040Z,17.66
2023-05-12T08:42:47.292Z,17.74
2023-05-12T08:45:34.162Z,17.86
2023-05-12T08:48:20.496Z,17.92
2023-05-12T08:51:11.871Z,17.97
2023-05-12T08:53:57.777Z,17.98
2023-05-12T08:59:35.417Z,18.04
2023-05-12T09:02:24.739Z,18.07
2023-05-12T09:05:10.846Z,18.08
2023-05-12T09:07:57.069Z,18.13
2023-05-12T09:10:43.687Z,18.08
2023-05-12T09:13:46.252Z,18.17
2023-05-12T09:16:36.647Z,18.17
2023-05-12T09:19:22.661Z,18.15
2023-05-12T09:22:14.772Z,18.17
2023-05-12T09:25:01.234Z,18.25
2023-05-12T09:27:49.338Z,18.27
2023-05-12T09:30:38.422Z,18.27
2023-05-12T09:33:25.551Z,18.29
2023-05-12T09:36:12.338Z,18.36
2023-05-12T09:39:07.269Z,18.42
2023-05-12T09:41:54.007Z,18.40
2023-05-12T09:44:41.300Z,18.41
2023-05-12T09:47:40.791Z,18.38
2023-05-12T09:50:28.895Z,18.39
2023-05-12T09:53:19.158Z,18.37
2023-05-12T09:56:05.466Z,18.39
2023-05-12T09:58:51.524Z,18.36
2023-05-12T10:01:37.680Z,18.38
2023-05-12T10:04:23.982Z,18.36
2023-05-12T10:07:12.301Z,18.43
2023-05-12T10:10:00.164Z,18.48
2023-05-12T10:12:46.442Z,18.49
2023-05-12T10:15:33.856Z,18.48
2023-05-12T10:18:19.982Z,18.50
2023-05-12T10:21:07.038Z,18.49
2023-05-12T10:23:54.511Z,18.55
2023-05-12T10:26:42.469Z,18.57
2023-05-12T10:29:33.018Z,18.64
2023-05-12T10:32:19.038Z,18.67
2023-05-12T10:35:13.261Z,18.75
2023-05-12T10:38:09.806Z,18.82
2023-05-12T10:41:01.257Z,18.94
2023-05-12T10:43:49.207Z,19.02
2023-05-12T10:46:35.728Z,19.15
2023-05-12T10:49:39.156Z,19.21
2023-05-12T10:52:27.794Z,19.24
2023-05-12T10:55:14.454Z,19.27
2023-05-12T10:58:12.312Z,19.33
2023-05-12T11:01:08.140Z,19.39
2023-05-12T11:03:59.175Z,19.48
2023-05-12T11:06:46.982Z,19.50
2023-05-12T11:09:36.918Z,19.54
2023-05-12T11:12:32.713Z,19.54
2023-05-12T11:15:19.235Z,19.57
2023-05-12T11:18:06.007Z,19.71
2023-05-12T11:20:52.027Z,19.79
2023-05-12T11:23:37.892Z,19.88
2023-05-12T11:26:23.849Z,19.95
2023-05-12T11:29:11.452Z,20.09
2023-05-12T11:31:58.778Z,20.18
2023-05-12T11:34:45.507Z,20.30
2023-05-12T11:37:37.046Z,20.49
2023-05-12T11:40:23.472Z,20.54
2023-05-12T11:43:10.613Z,20.67
2023-05-12T11:45:56.987Z,20.75
2023-05-12T11:48:43.098Z,20.81
2023-05-12T11:51:29.014Z,20.81
2023-05-12T11:54:15.197Z,20.77
2023-05-12T11:57:01.401Z,20.70
2023-05-12T12:00:01.923Z,20.59
2023-05-12T12:02:51.564Z,20.52
2023-05-12T12:05:38.370Z,20.42
2023-05-12T12:08:24.663Z,20.31
2023-05-12T12:11:11.506Z,20.21
2023-05-12T12:13:57.813Z,20.01
2023-05-12T12:16:43.948Z,19.72
2023-05-12T12:19:30.454Z,19.47
2023-05-12T12:22:16.510Z,19.19
2023-05-12T12:25:02.937Z,19.08
2023-05-12T12:27:49.345Z,18.91
2023-05-12T12:30:35.400Z,18.68
2023-05-12T12:33:21.617Z,18.60
2023-05-12T12:36:09.264Z,18.48
2023-05-12T12:38:55.433Z,18.40
2023-05-12T12:41:41.331Z,18.33
2023-05-12T12:44:27.855Z,18.34
2023-05-12T12:47:13.860Z,18.34
2023-05-12T12:49:59.954Z,18.34
2023-05-12T12:52:46.040Z,18.42
2023-05-12T12:55:32.181Z,18.43
2023-05-12T12:58:17.986Z,18.54
2023-05-12T13:01:04.146Z,18.74
2023-05-12T13:03:50.235Z,19.00
2023-05-12T13:06:36.226Z,19.29
2023-05-12T13:09:22.362Z,19.72
2023-05-12T13:12:08.801Z,20.28
2023-05-12T13:14:55.022Z,20.87
2023-05-12T13:17:41.168Z,21.45
2023-05-12T13:20:27.414Z,21.98
2023-05-12T13:23:13.913Z,22.48
2023-05-12T13:25:59.842Z,22.93
2023-05-12T13:28:46.828Z,23.49
2023-05-12T13:31:32.650Z,24.02
2023-05-12T13:34:18.792Z,24.56
2023-05-12T13:37:05.124Z,25.06
2023-05-12T13:39:51.071Z,25.50
2023-05-12T13:42:37.108Z,25.94
2023-05-12T13:45:23.182Z,26.40
2023-05-12T13:48:10.409Z,26.95
2023-05-12T13:50:56.587Z,27.28
2023-05-12T13:53:43.202Z,27.52
2023-05-12T13:56:35.877Z,27.84
2023-05-12T13:59:21.843Z,28.00
2023-05-12T14:02:09.861Z,28.00
2023-05-12T14:04:56.685Z,28.02
2023-05-12T14:07:42.765Z,28.02
2023-05-12T14:10:28.665Z,28.24
2023-05-12T14:13:14.671Z,28.35
2023-05-12T14:16:00.533Z,28.18
2023-05-12T14:18:46.342Z,27.94
2023-05-12T14:21:32.465Z,27.48
2023-05-12T14:24:18.247Z,27.06
2023-05-12T14:27:04.517Z,26.76
2023-05-12T14:29:51.771Z,26.59
2023-05-12T14:32:38.058Z,26.53
2023-05-12T14:35:27.559Z,26.62
2023-05-12T14:38:14.058Z,26.72
2023-05-12T14:40:59.862Z,26.80
2023-05-12T14:43:45.888Z,26.89
2023-05-12T14:46:31.855Z,26.91
2023-05-12T14:49:21.160Z,26.78
2023-05-12T14:52:07.044Z,26.58
2023-05-12T14:54:52.801Z,26.34
2023-05-12T14:57:39.193Z,26.09
2023-05-12T15:00:25.376Z,25.93
2023-05-12T15:03:11.759Z,25.90
2023-05-12T15:06:06.477Z,25.78
2023-05-12T15:08:53.096Z,25.54
2023-05-12T15:11:39.729Z,25.28
2023-05-12T15:14:25.829Z,25.01
2023-05-12T15:17:13.242Z,24.68
2023-05-12T15:19:59.543Z,24.39
2023-05-12T15:22:48.311Z,24.02
2023-05-12T15:26:20.791Z,23.71
2023-05-12T15:29:16.467Z,23.28
2023-05-12T15:32:03.135Z,22.96
2023-05-12T15:34:49.159Z,22.65
2023-05-12T15:37:35.417Z,22.41
2023-05-12T15:40:21.497Z,22.12
2023-05-12T15:43:07.921Z,21.88
2023-05-12T15:45:53.729Z,21.67
2023-05-12T15:48:39.932Z,21.39
2023-05-12T15:51:26.084Z,21.19
2023-05-12T15:54:12.615Z,21.01
2023-05-12T15:56:59.094Z,20.78
2023-05-12T15:59:46.044Z,20.63
2023-05-12T16:02:33.139Z,20.48
2023-05-12T16:05:19.775Z,20.38
2023-05-12T16:08:05.763Z,20.31
2023-05-12T16:10:51.964Z,20.25
2023-05-12T16:13:38.104Z,20.19
2023-05-12T16:16:24.482Z,20.09
2023-05-12T16:19:10.861Z,20.04
2023-05-12T16:21:58.555Z,20.00
2023-05-12T16:24:44.590Z,19.98
2023-05-12T16:27:33.600Z,19.94
2023-05-12T16:30:21.028Z,19.92
2023-05-12T16:33:07.367Z,19.82
2023-05-12T16:35:55.508Z,19.80
2023-05-12T16:38:41.699Z,19.70
2023-05-12T16:41:28.776Z,19.66
2023-05-12T16:44:15.012Z,19.61
2023-05-12T16:47:00.854Z,19.59
2023-05-12T16:49:47.058Z,19.46
2023-05-12T16:52:33.659Z,19.38
2023-05-12T16:55:20.001Z,19.37
2023-05-12T16:58:07.248Z,19.32
2023-05-12T17:00:53.703Z,19.26
2023-05-12T17:03:39.994Z,19.20
2023-05-12T17:06:25.962Z,19.18
2023-05-12T17:09:13.342Z,19.09
2023-05-12T17:11:59.366Z,19.10
2023-05-12T17:14:48.000Z,19.10
2023-05-12T17:17:44.258Z,19.08
2023-05-12T17:20:30.445Z,19.04
2023-05-12T17:23:20.510Z,19.02
2023-05-12T17:26:06.813Z,18.97
2023-05-12T17:28:53.333Z,18.91
2023-05-12T17:31:39.688Z,18.86
2023-05-12T17:34:25.723Z,18.80
2023-05-12T17:37:11.994Z,18.77
2023-05-12T17:39:57.955Z,18.69
2023-05-12T17:42:44.759Z,18.69
2023-05-12T17:45:30.851Z,18.61
2023-05-12T17:48:16.994Z,18.58
2023-05-12T17:51:03.498Z,18.56
2023-05-12T17:53:49.424Z,18.54
2023-05-12T17:56:35.393Z,18.46
2023-05-12T17:59:21.414Z,18.43
2023-05-12T18:02:07.459Z,18.48
2023-05-12T18:04:53.672Z,18.47
2023-05-12T18:07:39.578Z,18.46
2023-05-12T18:10:25.738Z,18.43
2023-05-12T18:13:11.908Z,18.49
2023-05-12T18:15:58.013Z,18.47
2023-05-12T18:18:46.151Z,18.47
2023-05-12T18:21:32.815Z,18.50
2023-05-12T18:24:19.129Z,18.49
2023-05-12T18:27:06.580Z,18.47
2023-05-12T18:29:52.896Z,18.47
2023-05-12T18:32:41.209Z,18.50
2023-05-12T18:35:27.455Z,18.45
2023-05-12T18:38:13.793Z,18.44
2023-05-12T18:41:00.422Z,18.43
2023-05-12T18:43:46.210Z,18.42
2023-05-12T18:46:32.087Z,18.38
2023-05-12T18:49:17.882Z,18.42
2023-05-12T18:52:06.141Z,18.41
2023-05-12T18:54:52.228Z,18.42
2023-05-12T18:57:38.368Z,18.41
2023-05-12T19:00:26.543Z,18.40
2023-05-12T19:03:12.926Z,18.36
2023-05-12T19:05:58.991Z,18.36
2023-05-12T19:08:46.277Z,18.36
2023-05-12T19:11:32.377Z,18.38
2023-05-12T19:14:18.469Z,18.32
2023-05-12T19:17:05.165Z,18.31
2023-05-12T19:19:50.925Z,18.29
2023-05-12T19:22:36.966Z,18.28
2023-05-12T19:25:23.771Z,18.24
2023-05-12T19:28:12.005Z,18.22
2023-05-12T19:30:59.091Z,18.16
2023-05-12T19:33:46.304Z,18.10
2023-05-12T19:36:36.092Z,18.05
2023-05-12T19:39:22.362Z,18.05
2023-05-12T19:42:08.613Z,17.99
2023-05-12T19:44:54.877Z,17.98
2023-05-12T19:47:41.500Z,17.96
2023-05-12T19:50:28.688Z,17.93
2023-05-12T19:53:15.052Z,17.88
2023-05-12T19:56:01.378Z,17.90
2023-05-12T19:58:48.009Z,17.85
2023-05-12T20:01:34.140Z,17.83
2023-05-12T20:04:20.572Z,17.81
2023-05-12T20:07:06.821Z,17.78
2023-05-12T20:09:53.182Z,17.72
2023-05-12T20:12:39.583Z,17.69
2023-05-12T20:15:25.948Z,17.69
2023-05-12T20:18:14.849Z,17.66
2023-05-12T20:21:01.313Z,17.62
2023-05-12T20:23:47.380Z,17.65
2023-05-12T20:26:33.440Z,17.59
2023-05-12T20:29:21.121Z,17.58
2023-05-12T20:32:07.025Z,17.56
2023-05-12T20:34:53.242Z,17.52
2023-05-12T20:37:40.605Z,17.48
2023-05-12T20:40:26.933Z,17.43
2023-05-12T20:43:14.608Z,17.38
2023-05-12T20:46:04.120Z,17.35
2023-05-12T20:48:50.576Z,17.22
2023-05-12T20:51:36.529Z,17.23
2023-05-12T20:54:22.559Z,17.18
2023-05-12T20:57:10.410Z,17.10
2023-05-12T20:59:57.073Z,17.00
2023-05-12T21:02:42.921Z,16.99
2023-05-12T21:05:29.202Z,16.90
2023-05-12T21:08:15.883Z,16.92
2023-05-12T21:11:01.924Z,16.93
2023-05-12T21:13:48.393Z,16.86
2023-05-12T21:16:34.540Z,16.83
2023-05-12T21:19:20.981Z,16.89
2023-05-12T21:22:07.525Z,16.91
2023-05-12T21:24:53.713Z,16.81
2023-05-12T21:27:40.871Z,16.84
2023-05-12T21:30:28.025Z,16.68
2023-05-12T21:33:15.256Z,16.58
2023-05-12T21:36:01.280Z,16.56
2023-05-12T21:38:48.007Z,16.51
2023-05-12T21:41:34.251Z,16.49
2023-05-12T21:44:20.453Z,16.52
2023-05-12T21:47:06.408Z,16.47
2023-05-12T21:49:56.184Z,16.50
2023-05-12T21:52:42.189Z,16.46
2023-05-12T21:55:28.094Z,16.48
2023-05-12T21:58:14.192Z,16.40
2023-05-12T22:01:00.066Z,16.36
2023-05-12T22:03:46.261Z,16.34
2023-05-12T22:06:32.518Z,16.38
2023-05-12T22:09:19.458Z,16.30
2023-05-12T22:12:05.982Z,16.26
2023-05-12T22:14:52.197Z,16.21
2023-05-12T22:17:38.600Z,16.15
2023-05-12T22:20:24.760Z,16.17
2023-05-12T22:23:10.915Z,16.16
2023-05-12T22:25:56.759Z,16.10
2023-05-12T22:28:44.586Z,16.14
2023-05-12T22:31:32.869Z,16.09
2023-05-12T22:34:18.745Z,16.06
2023-05-12T22:37:04.974Z,16.07
2023-05-12T22:39:51.218Z,16.05
2023-05-12T22:42:37.229Z,16.00
2023-05-12T22:45:23.390Z,16.00
2023-05-12T22:48:09.414Z,16.02
2023-05-12T22:50:55.591Z,16.00
2023-05-12T22:53:41.616Z,15.96
2023-05-12T22:56:27.768Z,16.02
2023-05-12T22:59:13.594Z,15.97
2023-05-12T23:01:59.864Z,16.05
2023-05-12T23:04:46.224Z,15.99
2023-05-12T23:07:32.352Z,15.96
2023-05-12T23:10:18.478Z,15.99
2023-05-12T23:13:04.263Z,15.95
2023-05-12T23:15:49.988Z,15.99
2023-05-12T23:18:35.751Z,15.96
2023-05-12T23:21:21.515Z,15.96
2023-05-12T23:24:09.025Z,16.01
2023-05-12T23:27:04.604Z,15.96
2023-05-12T23:29:53.581Z,15.94
2023-05-12T23:32:40.023Z,15.94
2023-05-12T23:35:26.611Z,15.99
2023-05-12T23:38:12.657Z,15.99
2023-05-12T23:40:58.535Z,15.98
2023-05-12T23:43:44.427Z,15.96
2023-05-12T23:46:30.600Z,15.97
2023-05-12T23:49:16.648Z,15.94
2023-05-12T23:52:02.601Z,15.90
2023-05-12T23:54:48.481Z,15.91
2023-05-12T23:57:34.190Z,15.86
